Date,TemperatureHighF,TemperatureAvgF,TemperatureLowF,DewpointHighF,DewpointAvgF,DewpointLowF,HumidityHigh,HumidityAvg,HumidityLow,PressureMaxIn,PressureMinIn,WindSpeedMaxMPH,WindSpeedAvgMPH,GustSpeedMaxMPH,PrecipitationSumIn
2013-1-1,34.3,31.7,27.0,31.1,28.3,23.0,93,87,72,30.12,30.01,9,0,9,0.02
2013-1-2,29.5,23.7,18.3,23.4,16.7,13.5,87,75,55,30.30,30.10,7,0,8,0.00
2013-1-3,35.8,23.7,10.8,21.6,16.6,8.4,92,75,55,30.33,30.22,14,1,16,0.01
2013-1-4,33.4,29.5,27.7,23.0,21.6,19.6,78,72,60,30.35,30.25,12,2,14,0.00
2013-1-5,38.1,30.9,26.1,26.8,23.0,20.5,85,73,57,30.46,30.22,9,1,11,0.01
2013-1-6,39.9,36.8,34.3,31.6,27.9,24.6,89,70,63,30.26,30.06,10,1,10,0.16
2013-1-7,34.9,29.7,19.8,30.9,24.6,17.8,93,81,68,30.53,30.26,11,1,12,0.02
2013-1-8,48.9,29.9,17.4,32.4,23.9,15.3,94,80,49,30.45,30.32,8,0,9,0.07
2013-1-9,48.6,37.5,24.1,43.9,33.8,22.6,95,87,66,30.54,30.28,8,0,14,0.04
2013-1-10,47.1,34.6,23.7,37.4,30.5,22.3,96,86,53,30.65,30.30,8,0,9,0.01
2013-1-11,60.4,53.9,46.0,54.5,45.7,31.3,95,75,51,30.30,29.99,15,2,18,0.11
2013-1-12,67.3,59.8,48.6,56.7,53.6,46.4,96,81,63,30.11,29.95,18,1,19,0.00
2013-1-13,69.1,64.6,50.2,56.5,53.2,47.1,94,67,57,29.99,29.86,13,2,17,0.28
2013-1-14,59.5,42.5,34.0,56.5,37.0,27.1,94,81,67,30.37,29.89,9,0,10,0.09
2013-1-15,34.7,32.4,30.0,30.9,27.2,24.1,94,81,75,30.40,30.10,6,0,7,0.29
2013-1-16,36.5,35.0,32.0,35.1,33.0,30.6,96,93,86,30.10,29.90,9,1,11,0.34
2013-1-17,36.0,33.4,29.8,31.3,28.8,27.1,91,83,74,30.24,30.08,7,0,8,0.00
2013-1-18,37.4,28.6,21.6,27.3,15.9,3.9,87,60,25,30.57,30.22,15,1,18,0.00
2013-1-19,55.2,45.9,37.4,21.7,15.4,2.7,40,29,22,30.35,29.92,18,3,19,0.00
2013-1-20,47.1,38.8,25.2,30.7,19.4,10.8,69,47,28,30.17,29.88,22,3,23,0.00
2013-1-21,31.3,24.7,14.0,19.6,13.3,-2.0,81,62,46,30.15,29.94,14,2,17,0.00
2013-1-22,15.1,11.0,7.3,4.8,-1.3,-4.5,71,57,46,30.38,30.13,15,2,17,0.00
2013-1-23,17.8,12.1,4.1,12.2,2.3,-1.5,86,66,46,30.42,30.14,12,1,17,0.00
2013-1-24,24.3,15.3,4.6,13.1,8.2,-0.0,88,74,48,30.62,30.13,14,0,14,0.00
2013-1-25,23.4,16.4,5.4,18.9,10.8,0.7,87,79,54,30.61,30.10,11,0,11,0.00
2013-1-26,29.7,24.1,20.7,24.1,19.4,13.6,89,82,69,30.51,30.18,8,0,8,0.00
2013-1-27,35.2,24.8,12.2,22.8,16.7,9.1,89,72,51,30.60,30.37,4,0,5,0.08
2013-1-28,52.5,44.5,29.5,50.2,41.0,21.4,95,88,71,30.37,30.10,15,1,15,0.19
2013-1-29,70.0,59.2,51.4,55.2,51.6,48.9,95,78,55,30.10,29.80,15,1,16,0.02
2013-1-30,74.5,61.4,48.6,55.2,52.2,43.7,92,74,50,29.81,29.25,21,3,27,0.97
2013-1-31,48.4,29.8,24.3,44.1,21.2,10.2,89,71,51,29.93,29.25,26,4,27,0.09
2013-2-1,24.6,16.0,10.2,21.4,8.7,2.5,90,73,61,30.44,29.86,17,2,18,0.00
2013-2-2,26.4,19.0,9.0,22.6,12.0,2.3,89,74,52,30.43,30.06,15,1,15,0.00
2013-2-3,29.3,24.9,19.6,25.2,20.8,12.2,91,84,72,30.12,29.87,13,1,17,0.00
2013-2-4,33.1,24.8,18.3,30.4,19.1,11.8,94,79,58,30.17,29.92,11,1,11,0.00
2013-2-5,37.0,33.0,29.8,33.4,30.4,26.2,95,90,69,29.99,29.87,8,0,10,0.17
2013-2-6,33.3,29.3,19.2,28.6,25.5,17.1,94,86,72,30.38,29.99,4,0,5,0.01
2013-2-7,44.8,31.9,18.0,32.2,25.2,16.0,93,77,57,30.36,30.00,17,2,20,0.32
2013-2-8,43.0,35.8,26.1,37.6,30.0,20.5,92,79,70,30.22,29.83,17,3,20,0.12
2013-2-9,36.3,26.6,18.1,21.7,19.3,15.6,90,74,51,30.45,30.22,12,1,13,0.00
2013-2-10,55.4,34.6,14.2,36.5,19.5,12.0,93,61,23,30.42,30.03,15,1,18,0.00
2013-2-11,63.5,53.1,41.7,48.6,36.4,21.7,83,57,25,30.03,29.70,25,4,26,0.02
2013-2-12,49.8,39.7,25.9,27.5,24.6,21.0,85,56,34,30.09,29.89,14,2,19,0.00
2013-2-13,43.0,31.8,22.8,32.5,27.1,20.3,94,84,58,29.96,29.69,5,0,5,0.02
2013-2-14,45.0,36.4,28.8,33.4,28.9,25.0,90,75,57,30.04,29.91,15,1,15,0.10
2013-2-15,41.2,35.8,31.1,33.1,29.8,26.1,92,79,58,30.09,29.96,10,1,12,0.04
2013-2-16,31.1,25.8,18.7,27.9,19.3,13.1,89,76,58,30.08,29.98,7,0,8,0.00
2013-2-17,22.5,19.1,15.3,16.9,10.9,5.5,88,71,55,30.35,29.99,14,2,19,0.00
2013-2-18,50.2,30.4,6.6,32.2,15.9,3.0,90,58,35,30.40,29.94,13,1,14,0.01
2013-2-19,48.6,39.8,26.4,38.3,29.6,18.3,88,68,38,30.00,29.70,20,3,21,0.11
2013-2-20,26.6,21.7,19.8,20.3,13.5,9.3,83,70,60,30.31,29.99,17,2,18,0.00
2013-2-21,27.3,22.0,18.7,17.1,14.2,10.6,84,72,63,30.41,30.27,9,1,11,0.00
2013-2-22,45.3,35.6,21.9,37.6,27.5,15.1,87,73,47,30.35,30.02,23,3,25,0.01
2013-2-23,56.3,40.5,28.6,41.4,34.3,26.8,93,80,48,30.03,29.84,11,0,11,0.00
2013-2-24,33.3,29.4,26.1,29.1,24.6,20.1,94,82,71,30.20,29.88,11,1,11,0.00
2013-2-25,46.9,33.9,22.5,25.7,22.4,19.0,89,65,42,30.28,30.05,18,1,20,0.00
2013-2-26,41.7,38.1,35.4,35.1,27.0,19.8,89,65,49,30.08,29.55,25,7,34,0.50
2013-2-27,42.1,39.0,32.5,38.1,35.1,30.6,93,86,75,29.73,29.57,18,1,18,0.30
2013-2-28,33.8,32.7,31.8,31.1,29.7,28.4,92,89,84,29.86,29.68,9,1,9,0.08
2013-3-1,33.6,30.8,27.3,29.7,26.1,23.2,88,83,68,30.01,29.86,10,1,11,0.04
2013-3-2,29.5,26.7,24.3,24.4,22.2,20.1,88,83,74,30.02,29.95,7,0,10,0.00
2013-3-3,29.7,25.4,23.4,22.1,19.5,16.7,89,78,63,30.08,29.98,10,1,12,0.00
2013-3-4,39.6,27.5,21.4,20.5,17.3,13.5,88,66,41,30.20,30.08,11,2,13,0.01
2013-3-5,54.0,35.4,20.7,29.7,22.0,11.8,92,64,21,30.15,29.63,24,2,24,0.01
2013-3-6,39.0,33.7,30.2,33.6,30.4,28.6,95,88,71,30.16,29.63,16,1,26,0.21
2013-3-7,39.9,34.6,32.2,31.6,30.1,28.0,93,84,64,30.33,30.14,10,0,14,0.04
2013-3-8,36.5,32.3,25.2,28.2,25.9,22.5,90,77,68,30.47,30.32,8,0,9,0.01
2013-3-9,61.3,39.5,19.0,34.2,24.2,17.4,95,62,22,30.47,30.20,16,1,16,0.00
2013-3-10,71.8,57.1,41.5,35.6,28.4,21.0,59,34,20,30.21,29.99,12,2,18,0.00
2013-3-11,64.8,58.9,51.8,49.1,34.2,27.9,90,41,26,30.04,29.71,13,2,21,0.06
2013-3-12,52.2,40.3,36.9,49.8,35.6,27.7,93,83,69,30.05,29.75,9,1,12,0.31
2013-3-13,36.9,31.9,26.4,30.4,25.9,19.8,91,79,61,30.20,29.98,21,2,21,0.02
2013-3-14,41.2,30.9,24.6,21.4,18.6,15.4,84,61,39,30.31,30.18,14,3,16,0.00
2013-3-15,52.5,38.8,23.2,34.9,25.7,17.2,84,60,45,30.21,29.86,13,1,15,0.00
2013-3-16,57.0,44.9,36.9,48.2,40.6,32.7,96,85,64,29.97,29.61,7,0,9,0.05
2013-3-17,39.7,35.0,30.4,32.9,26.0,22.1,88,71,53,30.21,29.97,7,0,11,0.00
2013-3-18,48.9,37.7,31.6,42.1,31.7,24.4,90,79,62,30.16,29.74,26,6,32,0.65
2013-3-19,48.4,42.0,33.6,45.1,27.0,12.7,93,59,26,30.02,29.73,23,3,28,0.06
2013-3-20,42.6,34.3,28.6,22.3,15.9,13.5,57,47,33,30.04,29.83,19,2,24,0.00
2013-3-21,28.9,24.5,18.7,20.5,13.3,7.9,88,63,45,30.01,29.89,15,2,16,0.00
2013-3-22,41.5,29.7,23.5,19.8,17.4,14.7,80,61,39,30.08,29.99,12,1,14,0.00
2013-3-23,49.8,32.6,17.2,24.3,20.0,15.1,93,64,31,30.10,30.01,13,1,14,0.00
2013-3-24,41.4,32.6,24.6,29.1,23.1,19.2,88,69,42,30.03,29.48,20,2,27,0.00
2013-3-25,36.9,33.4,30.9,32.9,30.1,27.7,93,87,76,29.78,29.47,16,2,20,0.24
2013-3-26,42.3,35.6,31.6,32.9,30.3,28.4,94,82,61,30.14,29.78,13,0,14,0.14
2013-3-27,43.2,36.0,31.3,30.4,27.5,23.7,90,72,52,30.22,30.12,15,2,17,0.01
2013-3-28,43.5,37.6,32.5,30.9,27.9,25.7,84,68,53,30.30,30.19,11,1,13,0.00
2013-3-29,52.5,42.0,33.3,34.0,28.3,22.3,88,62,34,30.32,30.19,12,1,16,0.00
2013-3-30,56.8,41.8,25.2,29.5,24.0,16.0,87,54,22,30.30,30.05,11,1,11,0.00
2013-3-31,51.4,48.1,37.9,46.6,38.1,25.0,91,71,38,30.05,29.76,11,1,13,0.09
2013-4-1,46.9,42.1,33.3,43.5,30.9,14.2,90,67,31,30.06,29.76,12,2,14,0.02
2013-4-2,42.4,33.0,24.6,20.3,14.9,10.4,67,49,29,30.25,30.05,15,1,17,0.00
2013-4-3,45.0,31.5,19.8,21.7,15.3,8.2,86,55,25,30.45,30.25,17,1,19,0.00
2013-4-4,57.0,37.5,17.1,22.1,16.0,8.8,84,48,15,30.44,30.03,10,1,13,0.00
2013-4-5,60.1,44.6,27.3,34.2,26.1,20.7,86,51,30,30.19,29.96,15,1,19,0.00
2013-4-6,64.8,44.1,22.5,26.4,17.0,3.6,88,43,10,30.32,30.05,14,1,19,0.00
2013-4-7,73.4,62.7,54.1,52.9,38.1,22.1,92,43,26,30.05,29.90,19,4,21,0.07
2013-4-8,76.6,62.5,46.8,53.6,47.0,42.4,94,62,33,30.05,29.91,15,1,15,0.00
2013-4-9,81.7,66.8,49.3,56.1,51.4,45.1,90,60,38,30.10,29.93,15,1,16,0.00
2013-4-10,85.5,73.6,59.4,59.2,54.8,50.4,80,54,36,29.97,29.78,15,2,17,0.00
2013-4-11,82.6,68.5,52.5,59.2,55.0,49.8,93,65,39,29.86,29.55,11,1,12,0.00
2013-4-12,74.8,62.0,47.1,59.5,49.5,36.1,91,65,37,29.85,29.49,18,2,20,0.35
2013-4-13,61.2,49.2,39.0,37.0,33.0,29.1,79,56,32,30.02,29.84,13,2,17,0.00
2013-4-14,65.8,49.5,29.5,39.9,33.0,25.7,89,57,30,30.20,30.00,13,1,14,0.00
2013-4-15,66.9,61.8,57.0,49.6,44.8,37.6,70,54,39,30.11,29.99,20,3,22,0.00
2013-4-16,82.4,69.0,57.9,61.2,54.1,48.0,94,61,42,30.22,30.02,14,3,17,0.67
2013-4-17,70.3,60.7,54.5,60.4,57.0,53.2,97,88,70,30.23,30.06,11,0,16,0.01
2013-4-18,85.3,73.1,63.5,67.5,57.3,52.9,83,60,38,30.09,29.78,19,4,20,0.02
2013-4-19,74.8,62.3,45.9,61.2,50.0,33.3,86,65,52,29.87,29.47,19,3,23,0.13
2013-4-20,51.6,42.7,31.5,34.5,27.6,22.8,77,56,34,30.42,29.87,15,2,19,0.01
2013-4-21,57.7,41.4,24.6,29.5,23.8,19.2,91,55,26,30.62,30.42,11,1,13,0.00
2013-4-22,63.0,51.3,42.1,31.6,25.5,17.1,54,38,18,30.48,30.27,19,5,20,0.00
2013-4-23,71.8,56.8,38.3,42.1,34.2,28.4,78,46,21,30.28,29.97,18,2,20,0.00
2013-4-24,75.9,61.1,40.6,58.8,46.2,33.3,87,60,44,30.18,29.73,19,3,22,0.19
2013-4-25,59.5,46.1,32.9,36.7,31.9,27.9,93,61,33,30.38,30.17,12,1,13,0.00
2013-4-26,61.7,48.2,34.5,38.1,33.1,28.0,90,60,29,30.49,30.38,8,1,10,0.00
2013-4-27,75.9,55.8,31.5,42.4,34.1,27.0,95,53,19,30.42,30.17,10,1,13,0.00
2013-4-28,63.5,58.1,51.1,52.0,47.0,40.5,89,67,46,30.19,29.94,17,2,18,0.14
2013-4-29,67.5,59.8,55.9,57.0,51.9,46.9,90,76,62,30.02,29.94,12,1,17,0.06
2013-4-30,74.7,62.6,55.6,55.4,51.9,49.1,86,69,47,30.17,30.01,16,3,21,0.00
2013-5-1,76.6,64.5,54.7,53.1,46.2,33.6,79,55,25,30.31,30.16,18,4,24,0.00
2013-5-2,79.2,65.0,51.6,45.7,37.0,27.1,60,38,15,30.33,30.18,21,3,23,0.00
2013-5-3,74.7,62.5,48.9,47.5,41.2,31.3,73,48,26,30.23,30.14,20,2,20,0.00
2013-5-4,71.4,58.2,44.8,45.7,37.8,27.3,69,48,25,30.19,30.08,14,1,17,0.00
2013-5-5,73.8,59.8,46.2,41.7,32.8,20.8,72,41,15,30.14,30.00,19,2,22,0.00
2013-5-6,68.7,57.9,47.7,53.2,47.4,37.0,89,68,52,30.06,29.99,16,2,20,0.00
2013-5-7,63.7,60.2,54.7,57.6,54.6,51.3,93,82,72,30.00,29.92,9,0,11,0.15
2013-5-8,72.0,60.7,50.5,54.3,50.9,47.1,96,72,43,29.98,29.87,9,1,11,0.30
2013-5-9,77.0,62.7,54.0,59.2,53.8,47.5,94,75,37,30.02,29.91,11,1,12,0.04
2013-5-10,77.7,63.0,52.2,62.6,56.8,50.5,96,82,54,30.02,29.83,12,0,17,0.27
2013-5-11,63.7,59.9,52.5,59.5,55.8,47.5,94,87,73,29.86,29.78,0,0,0,0.40
2013-5-12,54.0,48.6,42.1,48.7,34.9,27.1,92,61,39,30.09,29.85,13,2,15,0.05
2013-5-13,52.0,42.9,31.5,36.0,30.1,23.0,93,63,34,30.22,30.09,15,1,17,0.00
2013-5-14,62.8,47.3,26.8,49.3,34.8,25.5,96,67,36,30.24,29.93,12,1,12,0.00
2013-5-15,86.4,74.6,62.8,62.8,55.3,41.2,67,52,40,29.93,29.72,11,2,16,0.00
2013-5-16,75.9,66.6,58.5,63.7,59.2,53.4,94,79,48,29.98,29.78,9,1,12,0.50
2013-5-17,83.1,67.9,55.2,63.0,56.9,46.0,97,72,30,30.11,29.98,7,0,7,0.00
2013-5-18,82.9,66.8,52.9,63.5,57.6,51.1,95,74,47,30.11,30.02,14,1,19,0.32
2013-5-19,81.0,69.0,61.5,68.0,61.2,57.2,90,77,56,30.09,29.96,18,2,26,0.07
2013-5-20,84.4,72.1,59.2,69.6,63.6,57.4,95,76,53,30.04,29.91,8,1,10,0.01
2013-5-21,84.9,73.6,60.6,70.5,65.6,59.2,97,78,54,29.98,29.83,8,1,11,0.00
2013-5-22,85.5,72.3,63.7,67.8,62.2,59.2,93,72,50,29.90,29.78,10,1,14,0.16
2013-5-23,77.9,65.6,60.1,64.6,60.6,56.5,95,85,54,29.88,29.77,12,1,17,0.26
2013-5-24,60.1,46.2,40.8,57.4,40.3,33.3,94,81,59,30.32,29.85,13,1,13,0.10
2013-5-25,61.2,46.1,30.9,41.0,36.0,29.5,95,70,42,30.38,30.25,11,1,11,0.00
2013-5-26,66.9,49.6,31.3,44.4,37.4,30.0,96,68,33,30.34,30.23,9,1,11,0.00
2013-5-27,65.3,51.8,36.7,53.4,44.9,35.1,96,79,40,30.30,30.12,6,0,7,0.00
2013-5-28,81.7,71.5,57.6,68.2,59.3,51.3,87,66,52,30.12,29.99,10,1,11,0.03
2013-5-29,85.1,73.6,60.4,66.2,61.1,57.2,93,67,45,30.12,30.02,12,1,14,0.00
2013-5-30,88.2,72.4,57.4,69.4,62.6,56.1,97,74,43,30.20,30.06,7,0,8,0.00
2013-5-31,87.1,73.4,59.2,68.0,62.3,57.4,96,71,42,30.13,29.98,10,1,10,0.00
2013-6-1,86.7,75.6,64.2,69.1,65.4,60.8,96,73,50,30.04,29.82,11,1,13,0.08
2013-6-2,78.6,73.0,63.1,67.1,63.9,60.1,91,74,58,29.87,29.79,11,1,14,0.09
2013-6-3,69.6,63.3,51.1,62.6,59.0,49.5,95,86,68,30.05,29.86,5,0,7,0.02
2013-6-4,73.0,57.3,39.2,53.4,46.4,37.9,97,71,34,30.18,30.05,6,0,6,0.00
2013-6-5,84.4,64.7,45.5,65.7,55.5,44.1,97,75,46,30.14,29.92,13,1,15,0.06
2013-6-6,71.8,66.9,63.1,64.2,62.1,60.3,95,85,69,29.97,29.74,11,1,14,0.39
2013-6-7,64.9,63.6,60.4,63.9,62.4,58.6,97,96,93,29.85,29.73,5,0,6,0.19
2013-6-8,72.7,62.5,56.1,61.2,57.2,54.1,95,84,64,30.12,29.84,4,0,4,0.00
2013-6-9,85.5,70.4,55.0,67.1,61.6,54.1,97,76,48,30.17,30.00,9,1,11,0.00
2013-6-10,80.1,70.0,64.8,69.6,64.5,61.2,93,83,66,30.02,29.78,15,1,17,0.15
2013-6-11,76.6,67.5,62.8,67.6,62.9,59.5,94,86,69,29.91,29.81,6,0,10,0.02
2013-6-12,83.8,74.4,62.4,73.2,67.2,61.0,96,79,61,29.93,29.73,9,0,9,0.02
2013-6-13,75.7,67.2,59.7,71.2,63.6,58.1,96,88,77,29.78,29.55,16,1,19,0.93
2013-6-14,72.0,61.8,54.0,61.7,57.0,52.9,97,85,59,30.06,29.78,8,0,10,0.07
2013-6-15,78.3,64.3,49.6,60.8,54.0,48.4,97,74,37,30.15,30.02,7,0,7,0.00
2013-6-16,73.9,67.4,60.3,66.9,62.2,55.8,95,84,74,30.04,29.93,9,1,14,0.06
2013-6-17,81.0,71.9,65.1,70.2,65.8,62.8,95,82,61,29.98,29.89,6,0,6,0.64
2013-6-18,75.4,68.1,62.8,67.6,64.4,61.5,97,88,69,29.92,29.83,5,0,7,0.00
2013-6-19,78.1,67.9,55.6,64.6,59.3,52.2,95,76,47,30.14,29.92,4,0,4,0.00
2013-6-20,81.9,66.2,49.8,64.4,56.5,48.4,97,74,43,30.23,30.14,6,0,8,0.00
2013-6-21,85.6,69.6,52.9,66.9,59.3,51.8,98,74,41,30.26,30.15,4,0,6,0.00
2013-6-22,87.6,73.6,59.7,71.1,65.0,58.3,97,77,48,30.21,30.06,7,0,9,0.00
2013-6-23,87.6,74.7,61.5,70.9,65.9,60.4,97,76,46,30.16,30.04,7,0,8,0.00
2013-6-24,86.7,74.5,62.2,71.6,66.6,61.0,98,78,53,30.16,30.00,10,1,11,0.00
2013-6-25,87.4,75.0,64.2,71.4,67.2,62.6,97,79,53,30.06,29.89,11,1,14,0.08
2013-6-26,80.4,71.9,64.2,72.7,67.7,62.8,97,87,68,29.96,29.81,9,1,11,0.76
2013-6-27,72.7,69.1,66.6,68.5,67.0,65.1,97,93,81,29.81,29.66,6,0,10,0.70
2013-6-28,79.5,69.8,63.0,71.4,66.3,61.9,97,89,71,29.65,29.52,19,1,20,0.33
2013-6-29,79.9,69.0,60.3,66.9,62.9,59.2,97,82,58,29.69,29.56,16,1,19,0.01
2013-6-30,86.5,72.2,59.2,70.2,64.3,58.3,98,79,46,29.81,29.68,9,0,9,0.00
2013-7-1,84.0,72.0,65.8,72.3,66.9,64.0,97,85,61,29.93,29.79,6,0,8,0.16
2013-7-2,84.0,74.1,66.0,72.1,68.0,64.2,98,83,55,30.06,29.92,8,0,10,0.17
2013-7-3,87.1,76.1,67.6,73.9,68.0,64.4,92,77,58,30.16,30.06,6,0,10,0.00
2013-7-4,88.3,76.4,67.8,73.6,68.5,64.8,96,78,53,30.22,30.08,7,0,7,0.01
2013-7-5,85.6,76.4,67.6,72.7,68.5,65.8,97,78,55,30.16,30.09,9,1,13,0.01
2013-7-6,91.0,77.9,66.9,75.0,69.5,65.7,98,78,50,30.17,30.00,7,1,7,0.00
2013-7-7,80.4,73.0,67.5,70.5,68.1,65.7,95,85,68,30.10,30.00,9,0,11,0.32
2013-7-8,81.3,72.5,65.3,71.2,66.6,62.1,96,82,65,30.14,30.05,9,1,9,0.00
2013-7-9,82.2,73.5,68.9,74.5,69.5,66.9,97,88,75,30.11,29.97,10,1,11,0.77
2013-7-10,86.4,74.7,66.0,75.7,69.8,64.8,97,86,65,30.06,29.82,13,1,14,1.23
2013-7-11,76.5,68.8,64.2,68.9,65.5,62.6,97,90,72,29.98,29.86,4,0,4,0.00
2013-7-12,73.8,64.3,58.5,66.7,62.2,57.4,97,93,77,30.11,29.96,10,0,12,0.43
2013-7-13,83.1,72.0,62.1,72.3,66.7,61.2,98,84,61,30.21,30.08,8,0,11,0.00
2013-7-14,91.6,79.7,68.5,75.9,68.9,65.5,92,71,48,30.28,30.19,9,1,12,0.00
2013-7-15,90.5,76.5,63.9,73.6,68.3,62.4,97,78,48,30.33,30.22,4,0,6,0.00
2013-7-16,90.9,73.2,66.0,76.3,69.5,65.1,98,89,59,30.31,30.21,6,0,6,0.00
2013-7-17,90.5,76.5,67.8,77.9,72.1,66.9,98,87,60,30.29,30.14,5,0,5,0.00
2013-7-18,91.8,78.9,67.6,77.4,72.6,66.7,98,83,54,30.17,30.01,5,0,5,0.00
2013-7-19,88.9,75.8,70.0,77.9,71.7,68.5,98,88,65,30.03,29.87,10,0,10,0.00
2013-7-20,78.1,72.4,67.5,74.5,69.3,65.7,97,90,81,29.95,29.83,7,0,7,0.00
2013-7-21,81.9,72.4,65.7,73.2,69.1,64.8,98,90,67,29.97,29.89,4,0,4,0.00
2013-7-22,81.7,71.8,65.5,74.8,69.5,64.6,98,93,76,29.94,29.77,7,0,7,0.00
2013-7-23,82.6,72.4,64.6,71.4,67.5,63.1,97,86,61,29.79,29.69,10,0,10,0.00
2013-7-24,65.8,64.3,62.4,65.3,62.9,59.5,98,95,83,29.88,29.74,3,0,3,0.00
2013-8-14,57.9,56.9,55.6,55.2,54.5,53.2,93,92,91,30.12,30.11,0,0,0,0.00
2013-8-15,74.8,59.3,45.3,59.7,52.0,44.6,98,80,50,30.22,30.09,5,0,6,0.00
2013-8-16,78.8,62.9,48.4,63.5,56.2,47.5,98,81,51,30.17,30.11,5,0,6,0.00
2013-8-17,77.2,66.6,54.5,63.5,57.2,52.9,96,74,49,30.24,30.16,10,1,12,0.00
2013-8-18,74.8,68.0,61.9,67.1,62.9,58.3,96,84,71,30.21,30.13,11,0,11,0.08
2013-8-19,81.3,69.3,63.0,71.4,66.5,61.9,97,91,68,30.14,30.05,6,0,6,0.55
2013-8-20,82.2,67.6,55.6,67.8,61.3,55.0,98,83,50,30.21,30.11,6,0,6,0.00
2013-8-21,84.6,68.4,55.9,73.2,64.1,55.0,98,87,64,30.19,30.06,7,0,8,0.06
2013-8-22,80.4,69.3,64.2,72.1,66.2,62.4,98,90,72,30.12,29.99,8,0,12,0.32
2013-8-23,79.9,68.9,60.4,68.2,64.3,58.3,98,87,50,30.14,29.97,7,0,11,1.83
2013-8-24,81.9,66.1,53.8,66.9,59.1,52.2,98,81,37,30.30,30.13,4,0,5,0.00
2013-8-25,81.3,67.5,55.6,66.2,59.9,54.5,98,79,50,30.39,30.24,7,0,8,0.00
2013-8-26,82.6,68.5,55.2,68.7,61.9,54.3,98,81,58,30.28,30.05,9,0,9,0.00
2013-8-27,77.0,72.3,67.3,72.9,68.9,64.2,96,89,82,30.06,29.94,7,0,7,0.28
2013-8-28,78.3,73.7,69.3,75.2,71.6,68.0,98,93,87,29.95,29.79,9,0,9,0.81
2013-8-29,84.9,74.0,66.6,73.2,69.8,65.5,98,88,65,30.01,29.88,3,0,4,0.01
2013-8-30,86.4,72.5,60.3,73.2,67.0,59.7,99,85,58,30.01,29.83,7,0,9,0.00
2013-8-31,83.8,73.9,65.5,72.5,68.5,64.6,99,84,63,29.86,29.78,9,0,11,0.00
2013-9-1,81.0,71.9,66.0,73.9,68.1,64.6,97,88,70,29.84,29.76,6,0,7,0.01
2013-9-2,81.7,71.2,64.6,74.5,68.1,63.7,98,90,72,29.85,29.74,8,0,9,0.19
2013-9-3,75.0,66.3,59.4,65.3,60.8,56.7,98,84,55,30.04,29.82,8,0,8,0.00
2013-9-4,76.8,62.1,49.3,61.7,55.9,48.4,98,82,51,30.14,30.04,5,0,6,0.00
2013-9-5,75.6,62.3,52.3,64.8,57.2,49.8,98,85,57,30.20,30.10,5,0,6,0.00
2013-9-6,75.6,58.2,44.1,57.7,50.8,43.3,98,80,47,30.27,30.14,4,0,5,0.01
2013-9-7,77.7,60.6,45.0,62.1,53.0,44.2,98,80,42,30.14,29.98,7,0,7,0.00
2013-9-8,80.4,68.6,57.9,69.6,63.3,56.1,96,84,65,30.04,29.94,6,0,6,0.00
2013-9-9,85.1,72.4,60.6,71.8,65.7,59.7,98,81,59,30.09,29.99,11,1,14,0.00
2013-9-10,87.1,77.0,70.3,75.7,70.2,66.2,96,80,67,30.15,30.05,9,1,11,0.00
2013-9-11,85.5,75.0,67.5,76.6,70.9,66.6,98,88,70,30.15,30.01,6,0,8,0.00
2013-9-12,79.3,72.3,65.1,72.1,68.8,63.1,96,89,78,30.01,29.79,10,0,25,0.14
2013-9-13,69.3,59.4,47.5,63.9,54.9,46.0,97,86,58,30.03,29.79,10,0,10,0.01
2013-9-14,65.7,53.2,44.6,51.6,47.7,43.3,97,83,53,30.19,30.03,4,0,5,0.00
2013-9-15,72.9,56.0,41.4,58.5,50.3,40.6,98,83,56,30.21,30.09,8,0,10,0.00
2013-9-16,68.4,59.3,52.0,59.0,55.8,50.2,97,89,64,30.30,30.06,4,0,5,0.17
2013-9-17,72.5,56.7,45.0,57.6,48.5,42.6,97,77,37,30.39,30.25,12,1,14,0.01
2013-9-18,71.1,58.9,45.9,62.1,51.4,41.9,95,78,44,30.26,30.12,11,0,13,0.00
2013-9-19,77.9,65.0,57.0,64.2,60.1,55.8,97,85,57,30.16,30.03,5,0,6,0.00
2013-9-20,78.6,67.3,55.9,70.2,63.9,55.0,98,89,72,30.05,29.84,6,0,9,0.00
2013-9-21,73.4,65.1,53.2,66.7,61.8,52.3,97,89,77,29.85,29.65,13,0,15,1.17
2013-9-22,63.7,56.3,51.1,55.9,52.3,45.9,98,88,56,30.03,29.79,9,0,9,0.00
2013-9-23,58.1,49.9,39.7,50.0,45.5,38.7,97,86,64,30.16,30.03,3,0,3,0.00
2013-9-24,70.3,50.7,36.5,58.5,46.3,35.8,97,87,58,30.14,29.99,3,0,4,0.00
2013-9-25,77.4,57.8,45.7,60.3,51.6,45.0,98,82,50,30.01,29.87,4,0,5,0.01
2013-9-26,77.2,58.4,45.7,58.5,51.1,44.8,98,80,39,30.08,29.94,4,0,5,0.00
2013-9-27,77.2,58.9,43.3,59.4,51.1,42.6,98,78,44,30.19,30.08,10,1,13,0.00
2013-9-28,74.8,62.9,52.0,57.7,52.9,49.8,95,71,49,30.25,30.14,15,2,19,0.00
2013-9-29,75.9,62.7,52.2,63.0,53.6,48.4,92,73,48,30.14,30.01,14,1,14,0.00
2013-9-30,70.5,58.7,49.5,61.9,55.8,48.4,97,90,74,30.07,30.00,5,0,6,0.00
2013-10-1,77.4,62.5,54.1,64.4,57.8,53.2,98,86,55,30.12,30.02,6,0,10,0.00
2013-10-2,78.8,63.4,52.9,66.4,59.2,52.0,98,87,59,30.14,30.05,7,0,8,0.00
2013-10-3,80.4,66.8,57.9,68.5,62.7,57.0,98,88,63,30.12,30.02,6,0,7,0.01
2013-10-4,81.7,68.8,61.3,69.1,64.4,60.4,98,87,60,30.13,30.03,7,0,9,0.00
2013-10-5,82.8,69.5,60.1,69.4,64.3,59.5,98,85,58,30.10,29.97,7,0,10,0.00
2013-10-6,85.3,73.1,63.1,68.0,62.7,57.6,97,73,45,29.98,29.76,14,1,15,0.00
2013-10-7,72.9,57.6,43.5,60.6,50.8,42.3,96,79,54,30.15,29.68,10,1,11,0.59
2013-10-8,68.5,50.9,37.8,52.3,44.2,37.0,98,81,44,30.32,30.15,6,0,7,0.00
2013-10-9,68.2,52.5,41.2,49.6,43.1,34.7,97,75,31,30.32,30.23,9,0,12,0.01
2013-10-10,67.5,57.6,50.5,57.6,49.1,40.8,93,74,57,30.23,30.08,9,0,10,0.00
2013-10-11,58.6,55.2,52.2,56.3,53.4,50.7,97,94,88,30.09,30.04,2,0,3,0.10
2013-10-12,73.6,61.7,54.7,63.1,57.9,53.8,98,88,68,30.16,30.05,8,0,8,0.00
2013-10-13,74.5,63.8,56.7,60.8,57.1,53.6,92,79,61,30.25,30.14,11,1,11,0.02
2013-10-14,66.2,59.9,55.4,60.8,57.1,53.4,96,91,80,30.29,30.21,4,0,5,0.11
2013-10-15,74.5,62.3,52.0,62.8,55.7,51.1,98,80,56,30.22,29.99,8,0,8,0.01
2013-10-16,70.0,62.3,53.8,60.6,55.7,48.9,92,80,64,30.00,29.88,8,0,10,0.00
2013-10-17,63.1,56.9,49.6,60.1,55.2,46.9,96,94,88,29.94,29.68,11,0,12,0.32
2013-10-18,61.9,50.1,39.0,47.7,43.3,37.8,96,79,46,30.08,29.93,7,1,9,0.00
2013-10-19,56.1,44.5,34.3,49.3,41.6,33.6,98,90,72,30.02,29.81,13,1,14,0.09
2013-10-20,58.1,45.5,37.4,42.3,38.2,35.6,95,78,45,30.10,30.00,13,1,16,0.00
2013-10-21,66.4,48.9,33.4,45.7,38.7,32.4,97,73,34,30.11,29.90,10,1,11,0.00
2013-10-22,58.6,47.7,36.9,46.9,39.2,32.0,95,74,45,30.00,29.87,7,1,9,0.21
2013-10-23,40.8,38.7,36.0,38.8,36.9,34.5,96,93,88,30.00,29.78,7,0,8,0.23
2013-10-24,42.6,37.5,33.1,35.2,33.5,30.4,93,85,65,30.22,29.99,10,1,11,0.03
2013-10-25,43.3,34.9,27.7,34.3,30.9,26.4,96,86,65,30.43,30.22,8,1,10,0.02
2013-10-26,50.2,42.1,31.6,31.3,28.4,25.9,84,60,39,30.35,29.96,15,2,18,0.00
2013-10-27,55.2,42.2,30.6,37.0,32.6,28.6,96,71,41,30.15,30.03,6,0,7,0.00
2013-10-28,60.8,41.6,28.0,43.7,33.9,27.0,97,78,37,30.32,30.14,6,0,7,0.00
2013-10-29,60.4,43.0,28.6,43.3,35.7,27.5,97,79,40,30.42,30.28,4,0,5,0.00
2013-10-30,60.4,52.5,42.3,57.0,48.6,39.2,92,87,79,30.28,30.13,4,0,4,0.00
2013-10-31,70.2,64.8,55.6,59.0,56.3,53.4,96,75,56,30.13,29.49,19,2,24,0.07
2013-11-1,73.2,60.0,48.7,57.7,49.3,44.6,89,69,49,29.72,29.38,17,2,25,0.20
2013-11-2,55.9,49.4,44.8,46.8,43.4,40.3,91,80,66,29.99,29.67,8,0,11,0.02
2013-11-3,51.4,41.0,28.2,41.4,34.4,26.4,94,79,43,30.48,29.99,9,0,9,0.03
2013-11-4,49.6,37.5,24.6,29.1,26.2,23.2,95,67,41,30.57,30.45,11,0,11,0.00
2013-11-5,57.7,46.9,35.4,35.6,30.9,26.4,76,55,38,30.56,30.36,6,0,8,0.00
2013-11-6,74.5,60.3,40.1,50.9,46.0,33.4,92,61,41,30.37,29.94,13,1,16,0.00
2013-11-7,65.1,47.9,39.2,54.1,40.4,26.4,95,76,57,30.17,29.88,11,1,15,0.80
2013-11-8,44.8,36.9,25.2,30.9,27.3,22.8,93,69,48,30.35,30.14,12,1,12,0.00
2013-11-9,58.6,42.4,23.9,32.5,24.3,20.8,96,57,24,30.35,30.06,14,1,17,0.00
2013-11-10,52.0,45.1,31.1,35.2,29.6,24.6,82,55,36,30.33,30.05,21,2,21,0.00
2013-11-11,50.4,39.0,25.5,39.2,29.5,23.2,94,72,40,30.35,30.08,11,1,13,0.02
2013-11-12,42.3,30.8,25.5,39.6,27.0,21.4,94,86,68,30.55,30.09,9,0,9,0.12
2013-11-13,36.5,28.4,20.7,23.9,20.9,17.4,89,74,53,30.62,30.47,8,1,10,0.05
2013-11-14,50.0,37.4,29.3,25.9,21.6,19.2,76,55,30,30.48,30.25,13,1,13,0.08
2013-11-15,57.0,45.1,30.4,43.0,28.0,19.6,87,55,25,30.30,30.17,11,1,14,0.02
2013-11-16,65.1,52.3,36.1,50.9,45.2,34.9,97,78,58,30.26,30.05,15,1,17,0.01
2013-11-17,68.5,62.4,53.6,59.4,53.1,46.9,91,72,60,30.07,29.56,21,2,22,0.48
2013-11-18,56.1,50.1,40.8,49.6,35.9,26.4,86,59,41,30.08,29.71,16,3,18,0.00
2013-11-19,40.8,35.1,25.9,27.7,25.7,22.1,87,69,57,30.43,30.07,11,0,12,0.00
2013-11-20,48.9,36.2,22.8,23.0,18.5,12.2,91,54,23,30.49,30.38,16,2,20,0.00
2013-11-21,58.6,47.6,34.9,45.7,33.9,19.0,74,59,47,30.46,30.26,12,1,16,0.00
2013-11-22,59.4,51.9,38.8,52.7,48.4,37.0,96,88,63,30.26,30.08,11,0,11,0.34
2013-11-23,38.8,32.3,20.1,37.0,25.5,11.8,93,76,56,30.41,30.17,13,1,14,0.00
2013-11-24,24.1,18.2,9.9,16.7,9.6,5.9,89,70,50,30.62,30.40,14,1,15,0.00
2013-11-25,40.3,26.1,8.8,20.5,9.5,0.7,91,56,19,30.61,30.30,8,0,9,0.01
2013-11-26,39.2,35.2,32.0,35.4,31.9,16.2,96,89,39,30.30,29.73,7,0,11,1.05
2013-11-27,34.0,28.7,23.2,32.9,25.4,13.8,96,88,66,30.21,29.75,13,1,15,0.04
2013-11-28,30.4,25.1,17.2,23.2,18.0,13.1,90,74,64,30.50,30.21,11,1,12,0.00
2013-11-29,37.9,29.9,23.4,24.3,21.9,20.1,89,73,54,30.69,30.50,12,0,14,0.00
2013-11-30,46.4,34.7,26.6,28.8,23.1,18.9,74,63,45,30.65,30.28,15,2,18,0.01
2013-12-1,48.2,40.3,27.0,35.2,29.3,23.7,91,66,47,30.28,30.01,12,1,13,0.00
2013-12-2,52.5,43.4,36.7,38.7,36.5,33.6,90,77,57,30.01,29.84,6,0,7,0.00
2013-12-3,57.4,43.8,35.6,42.1,37.7,33.3,95,81,52,29.94,29.86,7,0,7,0.00
2013-12-4,63.0,50.7,34.9,48.9,42.7,33.1,95,76,59,30.02,29.90,18,1,18,0.00
2013-12-5,69.8,61.1,45.5,59.5,54.3,44.1,96,80,64,30.02,29.87,16,1,16,0.82
2013-12-6,45.3,35.4,30.4,44.1,34.0,29.1,96,94,91,30.33,29.99,7,0,11,0.89
2013-12-7,30.4,27.5,22.3,29.1,24.0,18.3,95,87,75,30.62,30.27,4,0,5,0.89
2013-12-8,38.3,27.2,19.2,35.2,23.3,16.3,90,85,77,30.61,30.12,15,2,17,0.06
2013-12-9,44.4,38.7,32.2,42.4,35.2,26.4,96,87,77,30.19,30.02,14,2,14,0.18
2013-12-10,32.2,28.2,25.3,26.8,22.0,14.7,91,77,62,30.34,30.04,12,1,14,0.00
2013-12-11,33.6,26.9,20.1,21.2,16.6,14.0,80,65,50,30.45,30.30,12,2,15,0.00
2013-12-12,26.2,20.8,14.4,19.4,9.0,4.3,84,61,45,30.55,30.36,11,2,14,0.00
2013-12-13,38.1,27.0,20.8,22.6,14.1,7.9,82,59,42,30.37,30.27,10,1,13,0.00
2013-12-14,46.0,36.7,27.7,41.5,31.5,21.6,94,82,64,30.30,29.71,20,2,20,0.37
2013-12-15,43.2,32.6,27.5,41.4,27.6,20.7,93,82,72,30.06,29.67,14,2,17,0.02
2013-12-16,28.2,26.1,23.4,25.5,22.3,19.4,93,85,75,30.22,30.06,10,0,12,0.00
2013-12-17,38.5,33.7,27.1,33.8,29.9,24.4,95,86,78,30.10,29.99,6,0,12,0.13
2013-12-18,34.9,29.3,26.4,25.2,22.4,20.3,85,75,55,30.27,30.10,10,1,12,0.00
2013-12-19,58.3,47.1,34.9,36.7,26.2,8.6,77,45,27,30.19,30.06,14,2,18,0.00
2013-12-20,60.6,54.1,36.9,51.1,38.6,25.9,83,57,34,30.07,29.92,11,1,16,0.01
2013-12-21,69.6,62.9,59.2,59.5,55.5,51.1,94,77,67,29.94,29.68,11,2,15,0.13
2013-12-22,74.8,62.6,56.8,58.3,54.7,51.4,90,76,56,29.95,29.60,19,3,23,0.18
2013-12-23,57.4,40.8,30.6,51.6,37.1,22.8,95,87,72,30.32,29.95,14,1,14,0.35
2013-12-24,30.6,24.3,16.0,24.1,15.7,7.5,90,70,48,30.58,30.27,16,1,19,0.00
2013-12-25,33.3,22.2,11.8,25.5,15.8,8.2,88,77,55,30.58,30.29,3,0,4,0.00
2013-12-26,38.8,32.3,25.7,28.0,23.2,17.6,89,70,46,30.41,30.23,13,2,19,0.02
2013-12-27,45.7,33.2,21.9,23.4,21.1,17.6,87,63,34,30.45,30.35,11,1,15,0.00
2013-12-28,51.8,42.2,34.7,29.3,25.0,21.2,76,51,39,30.36,30.11,13,1,14,0.00
2013-12-29,44.4,40.7,36.3,43.3,38.0,28.6,96,90,72,30.11,29.67,7,0,10,0.78
2013-12-30,39.4,29.3,23.9,38.3,26.2,18.1,96,88,75,30.23,29.90,10,1,13,0.02
2013-12-31,28.8,26.6,24.6,24.1,20.3,17.2,89,77,68,30.39,30.15,12,2,19,0.00
2014-1-1,45.7,33.4,24.3,28.0,23.3,19.2,88,68,40,30.40,30.09,10,0,10,0.00
2014-1-2,31.8,25.9,12.6,29.3,23.7,9.7,95,91,87,30.09,29.69,10,0,10,0.00